sensor_id;sensor_type;location;lat;lon;timestamp;temperature;humidity
10722;DHT22;5412;59.450;18.124;2024-03-17T00:01:37;0.50;99.90
10722;DHT22;5412;59.450;18.124;2024-03-17T00:04:03;0.30;99.90
10722;DHT22;5412;59.450;18.124;2024-03-17T00:06:30;0.70;99.90
10722;DHT22;5412;59.450;18.124;2024-03-17T00:08:56;0.50;99.90
10722;DHT22;5412;59.450;18.124;2024-03-17T00:11:21;0.50;99.90
10722;DHT22;5412;59.450;18.124;2024-03-17T00:13:47;0.50;99.90
10722;DHT22;5412;59.450;18.124;2024-03-17T00:16:13;0.40;99.90
10722;DHT22;5412;59.450;18.124;2024-03-17T00:18:39;0.30;99.90
10722;DHT22;5412;59.450;18.124;2024-03-17T00:21:06;0.40;99.90
10722;DHT22;5412;59.450;18.124;2024-03-17T00:23:32;0.50;99.90
10722;DHT22;5412;59.450;18.124;2024-03-17T00:25:58;0.40;99.90
10722;DHT22;5412;59.450;18.124;2024-03-17T00:28:24;0.40;99.90
10722;DHT22;5412;59.450;18.124;2024-03-17T00:30:50;0.30;99.90
10722;DHT22;5412;59.450;18.124;2024-03-17T00:33:16;0.30;99.90
10722;DHT22;5412;59.450;18.124;2024-03-17T00:35:42;0.30;99.90
10722;DHT22;5412;59.450;18.124;2024-03-17T00:38:10;0.20;99.90
10722;DHT22;5412;59.450;18.124;2024-03-17T00:40:39;0.10;99.90
10722;DHT22;5412;59.450;18.124;2024-03-17T00:43:10;0.10;99.90
10722;DHT22;5412;59.450;18.124;2024-03-17T00:45:37;0.10;99.90
10722;DHT22;5412;59.450;18.124;2024-03-17T00:48:03;0.00;99.90
10722;DHT22;5412;59.450;18.124;2024-03-17T00:50:31;0.10;99.90
10722;DHT22;5412;59.450;18.124;2024-03-17T00:52:57;-0.10;99.90
10722;DHT22;5412;59.450;18.124;2024-03-17T00:55:23;0.00;99.90
10722;DHT22;5412;59.450;18.124;2024-03-17T00:57:48;-0.10;99.90
10722;DHT22;5412;59.450;18.124;2024-03-17T01:00:17;0.00;99.90
10722;DHT22;5412;59.450;18.124;2024-03-17T01:02:43;-0.10;99.90
10722;DHT22;5412;59.450;18.124;2024-03-17T01:05:09;-0.10;99.90
10722;DHT22;5412;59.450;18.124;2024-03-17T01:07:37;-0.10;99.90
10722;DHT22;5412;59.450;18.124;2024-03-17T01:10:03;-0.10;99.90
10722;DHT22;5412;59.450;18.124;2024-03-17T01:12:33;0.00;99.90
10722;DHT22;5412;59.450;18.124;2024-03-17T01:14:59;0.00;99.90
10722;DHT22;5412;59.450;18.124;2024-03-17T01:17:25;-0.20;99.90
10722;DHT22;5412;59.450;18.124;2024-03-17T01:19:53;-0.10;99.90
10722;DHT22;5412;59.450;18.124;2024-03-17T01:22:19;0.00;99.90
10722;DHT22;5412;59.450;18.124;2024-03-17T01:24:45;0.00;99.90
10722;DHT22;5412;59.450;18.124;2024-03-17T01:27:11;-0.10;99.90
10722;DHT22;5412;59.450;18.124;2024-03-17T01:29:40;-0.20;99.90
10722;DHT22;5412;59.450;18.124;2024-03-17T01:32:06;-0.20;99.90
10722;DHT22;5412;59.450;18.124;2024-03-17T01:34:31;0.00;99.90
10722;DHT22;5412;59.450;18.124;2024-03-17T01:36:57;0.10;99.90
10722;DHT22;5412;59.450;18.124;2024-03-17T01:39:23;0.00;99.90
10722;DHT22;5412;59.450;18.124;2024-03-17T01:41:48;-0.10;99.90
10722;DHT22;5412;59.450;18.124;2024-03-17T01:44:27;0.00;99.90
10722;DHT22;5412;59.450;18.124;2024-03-17T01:46:54;0.10;99.90
10722;DHT22;5412;59.450;18.124;2024-03-17T01:49:21;-0.20;99.90
10722;DHT22;5412;59.450;18.124;2024-03-17T01:51:48;-0.20;99.90
10722;DHT22;5412;59.450;18.124;2024-03-17T01:54:14;-0.20;99.90
10722;DHT22;5412;59.450;18.124;2024-03-17T01:56:41;-0.10;99.90
10722;DHT22;5412;59.450;18.124;2024-03-17T01:59:08;0.00;99.90
10722;DHT22;5412;59.450;18.124;2024-03-17T02:01:39;0.00;99.90
10722;DHT22;5412;59.450;18.124;2024-03-17T02:04:06;-0.10;99.90
10722;DHT22;5412;59.450;18.124;2024-03-17T02:06:32;0.00;99.90
10722;DHT22;5412;59.450;18.124;2024-03-17T02:08:58;0.00;99.90
10722;DHT22;5412;59.450;18.124;2024-03-17T02:11:27;0.10;99.90
10722;DHT22;5412;59.450;18.124;2024-03-17T02:13:56;0.00;99.90
10722;DHT22;5412;59.450;18.124;2024-03-17T02:16:23;-0.20;99.90
10722;DHT22;5412;59.450;18.124;2024-03-17T02:18:49;-0.20;99.90
10722;DHT22;5412;59.450;18.124;2024-03-17T02:21:19;-0.10;99.90
10722;DHT22;5412;59.450;18.124;2024-03-17T02:23:48;-0.10;99.90
10722;DHT22;5412;59.450;18.124;2024-03-17T02:26:14;-0.10;99.90
10722;DHT22;5412;59.450;18.124;2024-03-17T02:28:44;0.10;99.90
10722;DHT22;5412;59.450;18.124;2024-03-17T02:31:11;0.00;99.90
10722;DHT22;5412;59.450;18.124;2024-03-17T02:33:37;0.10;99.90
10722;DHT22;5412;59.450;18.124;2024-03-17T02:36:05;0.10;99.90
10722;DHT22;5412;59.450;18.124;2024-03-17T02:38:33;0.10;99.90
10722;DHT22;5412;59.450;18.124;2024-03-17T02:41:17;0.10;99.90
10722;DHT22;5412;59.450;18.124;2024-03-17T02:43:44;0.00;99.90
10722;DHT22;5412;59.450;18.124;2024-03-17T02:46:17;-0.10;99.90
10722;DHT22;5412;59.450;18.124;2024-03-17T02:48:45;-0.10;99.90
10722;DHT22;5412;59.450;18.124;2024-03-17T02:51:17;0.00;99.90
10722;DHT22;5412;59.450;18.124;2024-03-17T02:53:46;-0.10;99.90
10722;DHT22;5412;59.450;18.124;2024-03-17T02:56:13;-0.10;99.90
10722;DHT22;5412;59.450;18.124;2024-03-17T02:58:44;-0.20;99.90
10722;DHT22;5412;59.450;18.124;2024-03-17T03:01:10;-0.10;99.90
10722;DHT22;5412;59.450;18.124;2024-03-17T03:03:36;-0.20;99.90
10722;DHT22;5412;59.450;18.124;2024-03-17T03:06:03;-0.30;99.90
10722;DHT22;5412;59.450;18.124;2024-03-17T03:08:35;-0.30;99.90
10722;DHT22;5412;59.450;18.124;2024-03-17T03:11:07;-0.30;99.90
10722;DHT22;5412;59.450;18.124;2024-03-17T03:13:37;-0.40;99.90
10722;DHT22;5412;59.450;18.124;2024-03-17T03:16:04;-0.20;99.90
10722;DHT22;5412;59.450;18.124;2024-03-17T03:18:30;-0.20;99.90
10722;DHT22;5412;59.450;18.124;2024-03-17T03:20:55;-0.40;99.90
10722;DHT22;5412;59.450;18.124;2024-03-17T03:23:21;-0.30;99.90
10722;DHT22;5412;59.450;18.124;2024-03-17T03:25:47;-0.40;99.90
10722;DHT22;5412;59.450;18.124;2024-03-17T03:28:13;-0.40;99.90
10722;DHT22;5412;59.450;18.124;2024-03-17T03:30:39;-0.40;99.90
10722;DHT22;5412;59.450;18.124;2024-03-17T03:33:05;-0.30;99.90
10722;DHT22;5412;59.450;18.124;2024-03-17T03:35:31;-0.30;99.90
10722;DHT22;5412;59.450;18.124;2024-03-17T03:37:57;-0.20;99.90
10722;DHT22;5412;59.450;18.124;2024-03-17T03:40:23;-0.30;99.90
10722;DHT22;5412;59.450;18.124;2024-03-17T03:42:50;-0.30;99.90
10722;DHT22;5412;59.450;18.124;2024-03-17T03:45:16;-0.30;99.90
10722;DHT22;5412;59.450;18.124;2024-03-17T03:47:42;-0.30;99.90
10722;DHT22;5412;59.450;18.124;2024-03-17T03:50:09;-0.40;99.90
10722;DHT22;5412;59.450;18.124;2024-03-17T03:52:38;-0.20;99.90
10722;DHT22;5412;59.450;18.124;2024-03-17T03:55:06;-0.30;99.90
10722;DHT22;5412;59.450;18.124;2024-03-17T03:57:33;-0.30;99.90
10722;DHT22;5412;59.450;18.124;2024-03-17T04:00:03;-0.40;99.90
10722;DHT22;5412;59.450;18.124;2024-03-17T04:02:38;-0.50;99.90
10722;DHT22;5412;59.450;18.124;2024-03-17T04:05:05;-0.50;99.90
10722;DHT22;5412;59.450;18.124;2024-03-17T04:07:30;-0.50;99.90
10722;DHT22;5412;59.450;18.124;2024-03-17T04:09:56;-0.50;99.90
10722;DHT22;5412;59.450;18.124;2024-03-17T04:12:26;-0.50;99.90
10722;DHT22;5412;59.450;18.124;2024-03-17T04:14:53;-0.50;99.90
10722;DHT22;5412;59.450;18.124;2024-03-17T04:17:21;-0.50;99.90
10722;DHT22;5412;59.450;18.124;2024-03-17T04:19:48;-0.50;99.90
10722;DHT22;5412;59.450;18.124;2024-03-17T04:22:15;-0.50;99.90
10722;DHT22;5412;59.450;18.124;2024-03-17T04:24:48;-0.40;99.90
10722;DHT22;5412;59.450;18.124;2024-03-17T04:27:19;-0.50;99.90
10722;DHT22;5412;59.450;18.124;2024-03-17T04:29:47;-0.40;99.90
10722;DHT22;5412;59.450;18.124;2024-03-17T04:32:16;-0.40;99.90
10722;DHT22;5412;59.450;18.124;2024-03-17T04:34:41;-0.40;99.90
10722;DHT22;5412;59.450;18.124;2024-03-17T04:37:12;-0.50;99.90
10722;DHT22;5412;59.450;18.124;2024-03-17T04:39:42;-0.60;99.90
10722;DHT22;5412;59.450;18.124;2024-03-17T04:42:11;-0.50;99.90
10722;DHT22;5412;59.450;18.124;2024-03-17T04:44:37;-0.40;99.90
10722;DHT22;5412;59.450;18.124;2024-03-17T04:47:04;-0.60;99.90
10722;DHT22;5412;59.450;18.124;2024-03-17T04:49:43;-0.50;99.90
10722;DHT22;5412;59.450;18.124;2024-03-17T04:52:10;-0.40;99.90
10722;DHT22;5412;59.450;18.124;2024-03-17T04:54:36;-0.40;99.90
10722;DHT22;5412;59.450;18.124;2024-03-17T04:57:02;-0.30;99.90
10722;DHT22;5412;59.450;18.124;2024-03-17T04:59:28;-0.40;99.90
10722;DHT22;5412;59.450;18.124;2024-03-17T05:01:54;-0.40;99.90
10722;DHT22;5412;59.450;18.124;2024-03-17T05:04:20;-0.30;99.90
10722;DHT22;5412;59.450;18.124;2024-03-17T05:06:46;-0.10;99.90
10722;DHT22;5412;59.450;18.124;2024-03-17T05:09:16;-0.20;99.90
10722;DHT22;5412;59.450;18.124;2024-03-17T05:11:42;-0.10;99.90
10722;DHT22;5412;59.450;18.124;2024-03-17T05:14:08;-0.10;99.90
10722;DHT22;5412;59.450;18.124;2024-03-17T05:16:34;-0.10;99.90
10722;DHT22;5412;59.450;18.124;2024-03-17T05:19:00;-0.10;99.90
10722;DHT22;5412;59.450;18.124;2024-03-17T05:21:25;-0.10;99.90
10722;DHT22;5412;59.450;18.124;2024-03-17T05:23:56;-0.10;99.90
10722;DHT22;5412;59.450;18.124;2024-03-17T05:26:22;0.00;99.90
10722;DHT22;5412;59.450;18.124;2024-03-17T05:28:47;-0.10;99.90
10722;DHT22;5412;59.450;18.124;2024-03-17T05:31:13;0.00;99.90
10722;DHT22;5412;59.450;18.124;2024-03-17T05:33:40;0.10;99.90
10722;DHT22;5412;59.450;18.124;2024-03-17T05:36:06;0.00;99.90
10722;DHT22;5412;59.450;18.124;2024-03-17T05:38:32;0.10;99.90
10722;DHT22;5412;59.450;18.124;2024-03-17T05:43:26;0.00;99.90
10722;DHT22;5412;59.450;18.124;2024-03-17T05:45:53;-0.20;99.90
10722;DHT22;5412;59.450;18.124;2024-03-17T05:48:19;-0.10;99.90
10722;DHT22;5412;59.450;18.124;2024-03-17T05:50:45;0.00;99.90
10722;DHT22;5412;59.450;18.124;2024-03-17T05:53:11;0.00;99.90
10722;DHT22;5412;59.450;18.124;2024-03-17T05:55:37;0.10;99.90
10722;DHT22;5412;59.450;18.124;2024-03-17T05:58:03;0.10;99.90
10722;DHT22;5412;59.450;18.124;2024-03-17T06:00:30;0.10;99.90
10722;DHT22;5412;59.450;18.124;2024-03-17T06:02:57;0.00;99.90
10722;DHT22;5412;59.450;18.124;2024-03-17T06:05:22;0.00;99.90
10722;DHT22;5412;59.450;18.124;2024-03-17T06:07:48;0.00;99.90
10722;DHT22;5412;59.450;18.124;2024-03-17T06:10:14;0.10;99.90
10722;DHT22;5412;59.450;18.124;2024-03-17T06:12:40;0.20;99.90
10722;DHT22;5412;59.450;18.124;2024-03-17T06:15:06;0.30;99.90
10722;DHT22;5412;59.450;18.124;2024-03-17T06:17:32;0.10;99.90
10722;DHT22;5412;59.450;18.124;2024-03-17T06:19:58;0.10;99.90
10722;DHT22;5412;59.450;18.124;2024-03-17T06:22:24;0.20;99.90
10722;DHT22;5412;59.450;18.124;2024-03-17T06:24:50;0.10;99.90
10722;DHT22;5412;59.450;18.124;2024-03-17T06:27:16;0.30;99.90
10722;DHT22;5412;59.450;18.124;2024-03-17T06:29:42;0.20;99.90
10722;DHT22;5412;59.450;18.124;2024-03-17T06:32:08;0.20;99.90
10722;DHT22;5412;59.450;18.124;2024-03-17T06:34:34;0.50;99.90
10722;DHT22;5412;59.450;18.124;2024-03-17T06:36:59;0.20;99.90
10722;DHT22;5412;59.450;18.124;2024-03-17T06:39:26;0.20;99.90
10722;DHT22;5412;59.450;18.124;2024-03-17T06:41:51;0.20;99.90
10722;DHT22;5412;59.450;18.124;2024-03-17T06:44:17;0.40;99.90
10722;DHT22;5412;59.450;18.124;2024-03-17T06:46:45;0.40;99.90
10722;DHT22;5412;59.450;18.124;2024-03-17T06:49:12;0.50;99.90
10722;DHT22;5412;59.450;18.124;2024-03-17T06:51:38;0.40;99.90
10722;DHT22;5412;59.450;18.124;2024-03-17T06:54:04;0.40;99.90
10722;DHT22;5412;59.450;18.124;2024-03-17T06:56:30;0.50;99.90
10722;DHT22;5412;59.450;18.124;2024-03-17T06:58:58;0.60;99.90
10722;DHT22;5412;59.450;18.124;2024-03-17T07:01:23;0.60;99.90
10722;DHT22;5412;59.450;18.124;2024-03-17T07:03:49;0.60;99.90
10722;DHT22;5412;59.450;18.124;2024-03-17T07:06:15;0.50;99.90
10722;DHT22;5412;59.450;18.124;2024-03-17T07:08:40;0.30;99.90
10722;DHT22;5412;59.450;18.124;2024-03-17T07:11:08;0.30;99.90
10722;DHT22;5412;59.450;18.124;2024-03-17T07:13:35;0.30;99.90
10722;DHT22;5412;59.450;18.124;2024-03-17T07:16:02;0.40;99.90
10722;DHT22;5412;59.450;18.124;2024-03-17T07:18:29;0.40;99.90
10722;DHT22;5412;59.450;18.124;2024-03-17T07:21:02;0.50;99.90
10722;DHT22;5412;59.450;18.124;2024-03-17T07:23:32;0.50;99.90
10722;DHT22;5412;59.450;18.124;2024-03-17T07:25:59;0.60;99.90
10722;DHT22;5412;59.450;18.124;2024-03-17T07:28:25;0.60;99.90
10722;DHT22;5412;59.450;18.124;2024-03-17T07:30:53;0.50;99.90
10722;DHT22;5412;59.450;18.124;2024-03-17T07:33:19;0.50;99.90
10722;DHT22;5412;59.450;18.124;2024-03-17T07:35:51;0.70;99.90
10722;DHT22;5412;59.450;18.124;2024-03-17T07:38:17;0.70;99.90
10722;DHT22;5412;59.450;18.124;2024-03-17T07:40:44;0.70;99.90
10722;DHT22;5412;59.450;18.124;2024-03-17T07:43:10;0.70;99.90
10722;DHT22;5412;59.450;18.124;2024-03-17T07:45:36;0.80;99.90
10722;DHT22;5412;59.450;18.124;2024-03-17T07:48:01;0.70;99.90
10722;DHT22;5412;59.450;18.124;2024-03-17T07:50:27;2.40;99.90
10722;DHT22;5412;59.450;18.124;2024-03-17T07:52:53;0.60;99.90
10722;DHT22;5412;59.450;18.124;2024-03-17T07:55:18;0.60;99.90
10722;DHT22;5412;59.450;18.124;2024-03-17T07:57:44;0.50;99.90
10722;DHT22;5412;59.450;18.124;2024-03-17T08:00:10;0.60;99.90
10722;DHT22;5412;59.450;18.124;2024-03-17T08:02:47;0.60;99.90
10722;DHT22;5412;59.450;18.124;2024-03-17T08:05:13;0.60;99.90
10722;DHT22;5412;59.450;18.124;2024-03-17T08:07:39;0.70;99.90
10722;DHT22;5412;59.450;18.124;2024-03-17T08:10:10;0.70;99.90
10722;DHT22;5412;59.450;18.124;2024-03-17T08:12:35;0.80;99.90
10722;DHT22;5412;59.450;18.124;2024-03-17T08:15:01;0.80;99.90
10722;DHT22;5412;59.450;18.124;2024-03-17T08:17:27;0.80;99.90
10722;DHT22;5412;59.450;18.124;2024-03-17T08:19:53;0.80;99.90
10722;DHT22;5412;59.450;18.124;2024-03-17T08:22:19;0.70;99.90
10722;DHT22;5412;59.450;18.124;2024-03-17T08:24:44;0.90;99.90
10722;DHT22;5412;59.450;18.124;2024-03-17T08:27:10;0.80;99.90
10722;DHT22;5412;59.450;18.124;2024-03-17T08:29:36;0.80;99.90
10722;DHT22;5412;59.450;18.124;2024-03-17T08:32:02;0.90;99.90
10722;DHT22;5412;59.450;18.124;2024-03-17T08:34:27;1.10;99.90
10722;DHT22;5412;59.450;18.124;2024-03-17T08:36:53;1.10;99.90
10722;DHT22;5412;59.450;18.124;2024-03-17T08:39:19;1.00;99.90
10722;DHT22;5412;59.450;18.124;2024-03-17T08:41:44;1.20;99.90
10722;DHT22;5412;59.450;18.124;2024-03-17T08:44:11;1.30;99.90
10722;DHT22;5412;59.450;18.124;2024-03-17T08:46:36;1.00;99.90
10722;DHT22;5412;59.450;18.124;2024-03-17T08:49:02;1.10;99.90
10722;DHT22;5412;59.450;18.124;2024-03-17T08:51:28;1.00;99.90
10722;DHT22;5412;59.450;18.124;2024-03-17T08:53:54;1.10;99.90
10722;DHT22;5412;59.450;18.124;2024-03-17T08:56:23;1.10;99.90
10722;DHT22;5412;59.450;18.124;2024-03-17T08:58:48;1.10;99.90
10722;DHT22;5412;59.450;18.124;2024-03-17T09:01:15;1.20;99.90
10722;DHT22;5412;59.450;18.124;2024-03-17T09:03:42;0.90;99.90
10722;DHT22;5412;59.450;18.124;2024-03-17T09:06:15;0.90;99.90
10722;DHT22;5412;59.450;18.124;2024-03-17T09:08:41;1.00;99.90
10722;DHT22;5412;59.450;18.124;2024-03-17T09:11:12;1.00;99.90
10722;DHT22;5412;59.450;18.124;2024-03-17T09:13:38;0.90;99.90
10722;DHT22;5412;59.450;18.124;2024-03-17T09:16:04;0.80;99.90
10722;DHT22;5412;59.450;18.124;2024-03-17T09:18:31;0.90;99.90
10722;DHT22;5412;59.450;18.124;2024-03-17T09:21:05;0.70;99.90
10722;DHT22;5412;59.450;18.124;2024-03-17T09:23:32;0.90;99.90
10722;DHT22;5412;59.450;18.124;2024-03-17T09:26:10;1.00;99.90
10722;DHT22;5412;59.450;18.124;2024-03-17T09:28:38;1.00;99.90
10722;DHT22;5412;59.450;18.124;2024-03-17T09:31:04;1.00;99.90
10722;DHT22;5412;59.450;18.124;2024-03-17T09:33:34;0.90;99.90
10722;DHT22;5412;59.450;18.124;2024-03-17T09:36:04;1.00;99.90
10722;DHT22;5412;59.450;18.124;2024-03-17T09:38:32;1.10;99.90
10722;DHT22;5412;59.450;18.124;2024-03-17T09:40:58;1.30;99.90
10722;DHT22;5412;59.450;18.124;2024-03-17T09:43:27;1.30;99.90
10722;DHT22;5412;59.450;18.124;2024-03-17T09:45:53;1.60;99.90
10722;DHT22;5412;59.450;18.124;2024-03-17T09:48:26;1.50;99.90
10722;DHT22;5412;59.450;18.124;2024-03-17T09:53:27;1.40;99.90
10722;DHT22;5412;59.450;18.124;2024-03-17T09:55:57;1.20;99.90
10722;DHT22;5412;59.450;18.124;2024-03-17T09:58:23;1.40;99.90
10722;DHT22;5412;59.450;18.124;2024-03-17T10:00:49;1.40;99.90
10722;DHT22;5412;59.450;18.124;2024-03-17T10:06:34;1.50;99.90
10722;DHT22;5412;59.450;18.124;2024-03-17T10:09:15;1.60;99.90
10722;DHT22;5412;59.450;18.124;2024-03-17T10:11:47;1.70;99.90
10722;DHT22;5412;59.450;18.124;2024-03-17T10:14:15;1.80;99.90
10722;DHT22;5412;59.450;18.124;2024-03-17T10:16:43;2.00;99.90
10722;DHT22;5412;59.450;18.124;2024-03-17T10:19:23;2.00;99.90
10722;DHT22;5412;59.450;18.124;2024-03-17T10:21:50;2.10;99.90
10722;DHT22;5412;59.450;18.124;2024-03-17T10:24:24;1.70;99.90
10722;DHT22;5412;59.450;18.124;2024-03-17T10:26:51;1.80;99.90
10722;DHT22;5412;59.450;18.124;2024-03-17T10:29:33;1.60;99.90
10722;DHT22;5412;59.450;18.124;2024-03-17T10:32:14;1.60;99.90
10722;DHT22;5412;59.450;18.124;2024-03-17T10:34:43;1.50;99.90
10722;DHT22;5412;59.450;18.124;2024-03-17T10:37:18;1.40;99.90
10722;DHT22;5412;59.450;18.124;2024-03-17T10:39:53;1.30;99.90
10722;DHT22;5412;59.450;18.124;2024-03-17T10:42:28;1.50;99.90
10722;DHT22;5412;59.450;18.124;2024-03-17T10:44:54;1.60;99.90
10722;DHT22;5412;59.450;18.124;2024-03-17T10:47:24;1.70;99.90
10722;DHT22;5412;59.450;18.124;2024-03-17T10:49:55;1.50;99.90
10722;DHT22;5412;59.450;18.124;2024-03-17T10:52:23;1.50;99.90
10722;DHT22;5412;59.450;18.124;2024-03-17T10:54:53;1.50;99.90
10722;DHT22;5412;59.450;18.124;2024-03-17T11:00:01;1.50;99.90
10722;DHT22;5412;59.450;18.124;2024-03-17T11:02:31;1.60;99.90
10722;DHT22;5412;59.450;18.124;2024-03-17T11:05:18;1.60;99.90
10722;DHT22;5412;59.450;18.124;2024-03-17T11:07:45;1.60;99.90
10722;DHT22;5412;59.450;18.124;2024-03-17T11:10:22;1.50;99.90
10722;DHT22;5412;59.450;18.124;2024-03-17T11:12:58;1.40;99.90
10722;DHT22;5412;59.450;18.124;2024-03-17T11:20:38;1.60;99.90
10722;DHT22;5412;59.450;18.124;2024-03-17T11:23:05;1.50;99.90
10722;DHT22;5412;59.450;18.124;2024-03-17T11:28:02;1.40;99.90
10722;DHT22;5412;59.450;18.124;2024-03-17T11:38:58;1.50;99.90
10722;DHT22;5412;59.450;18.124;2024-03-17T11:41:42;1.40;99.90
10722;DHT22;5412;59.450;18.124;2024-03-17T11:46:54;1.20;99.90
10722;DHT22;5412;59.450;18.124;2024-03-17T11:54:36;1.10;99.90
10722;DHT22;5412;59.450;18.124;2024-03-17T11:57:09;1.30;99.90
10722;DHT22;5412;59.450;18.124;2024-03-17T11:59:36;0.50;99.90
10722;DHT22;5412;59.450;18.124;2024-03-17T12:02:10;1.50;99.90
10722;DHT22;5412;59.450;18.124;2024-03-17T12:04:42;1.60;99.90
10722;DHT22;5412;59.450;18.124;2024-03-17T12:07:12;1.80;99.90
10722;DHT22;5412;59.450;18.124;2024-03-17T12:09:41;1.70;99.90
10722;DHT22;5412;59.450;18.124;2024-03-17T12:12:10;1.60;99.90
10722;DHT22;5412;59.450;18.124;2024-03-17T12:14:37;1.50;99.90
10722;DHT22;5412;59.450;18.124;2024-03-17T12:17:08;1.20;99.90
10722;DHT22;5412;59.450;18.124;2024-03-17T12:19:34;1.40;99.90
10722;DHT22;5412;59.450;18.124;2024-03-17T12:22:02;1.30;99.90
10722;DHT22;5412;59.450;18.124;2024-03-17T12:24:33;1.50;99.90
10722;DHT22;5412;59.450;18.124;2024-03-17T12:27:01;1.50;99.90
10722;DHT22;5412;59.450;18.124;2024-03-17T12:29:36;1.60;99.90
10722;DHT22;5412;59.450;18.124;2024-03-17T12:32:10;1.60;99.90
10722;DHT22;5412;59.450;18.124;2024-03-17T12:34:38;1.40;99.90
10722;DHT22;5412;59.450;18.124;2024-03-17T12:37:05;1.50;99.90
10722;DHT22;5412;59.450;18.124;2024-03-17T12:39:33;1.50;99.90
10722;DHT22;5412;59.450;18.124;2024-03-17T12:44:33;1.50;99.90
10722;DHT22;5412;59.450;18.124;2024-03-17T12:47:01;1.40;99.90
10722;DHT22;5412;59.450;18.124;2024-03-17T12:49:31;1.40;99.90
10722;DHT22;5412;59.450;18.124;2024-03-17T12:51:57;1.30;99.90
10722;DHT22;5412;59.450;18.124;2024-03-17T12:54:25;1.50;99.90
10722;DHT22;5412;59.450;18.124;2024-03-17T12:56:52;1.60;99.90
10722;DHT22;5412;59.450;18.124;2024-03-17T12:59:47;1.40;99.90
10722;DHT22;5412;59.450;18.124;2024-03-17T13:02:31;1.30;99.90
10722;DHT22;5412;59.450;18.124;2024-03-17T13:05:19;1.50;99.90
10722;DHT22;5412;59.450;18.124;2024-03-17T13:07:46;1.70;99.90
10722;DHT22;5412;59.450;18.124;2024-03-17T13:10:19;1.50;99.90
10722;DHT22;5412;59.450;18.124;2024-03-17T13:12:48;1.70;99.90
10722;DHT22;5412;59.450;18.124;2024-03-17T13:15:23;1.80;99.90
10722;DHT22;5412;59.450;18.124;2024-03-17T13:17:48;1.60;99.90
10722;DHT22;5412;59.450;18.124;2024-03-17T13:20:17;1.60;99.90
10722;DHT22;5412;59.450;18.124;2024-03-17T13:22:44;1.60;99.90
10722;DHT22;5412;59.450;18.124;2024-03-17T13:25:23;1.60;99.90
10722;DHT22;5412;59.450;18.124;2024-03-17T13:27:53;1.80;99.90
10722;DHT22;5412;59.450;18.124;2024-03-17T13:30:21;1.80;99.90
10722;DHT22;5412;59.450;18.124;2024-03-17T13:32:50;2.20;99.90
10722;DHT22;5412;59.450;18.124;2024-03-17T13:35:24;2.50;99.90
10722;DHT22;5412;59.450;18.124;2024-03-17T13:37:51;2.60;99.90
10722;DHT22;5412;59.450;18.124;2024-03-17T13:40:18;3.10;99.90
10722;DHT22;5412;59.450;18.124;2024-03-17T13:42:51;3.70;99.90
10722;DHT22;5412;59.450;18.124;2024-03-17T13:45:18;4.20;99.60
10722;DHT22;5412;59.450;18.124;2024-03-17T13:47:59;4.40;98.30
10722;DHT22;5412;59.450;18.124;2024-03-17T13:50:25;4.40;97.20
10722;DHT22;5412;59.450;18.124;2024-03-17T13:52:52;4.80;96.40
10722;DHT22;5412;59.450;18.124;2024-03-17T13:55:21;5.10;95.00
10722;DHT22;5412;59.450;18.124;2024-03-17T13:57:53;4.80;94.60
10722;DHT22;5412;59.450;18.124;2024-03-17T14:00:21;4.50;94.50
10722;DHT22;5412;59.450;18.124;2024-03-17T14:02:47;4.70;94.80
10722;DHT22;5412;59.450;18.124;2024-03-17T14:05:15;5.30;93.90
10722;DHT22;5412;59.450;18.124;2024-03-17T14:07:42;5.50;92.90
10722;DHT22;5412;59.450;18.124;2024-03-17T14:10:09;5.70;91.90
10722;DHT22;5412;59.450;18.124;2024-03-17T14:12:36;5.80;91.70
10722;DHT22;5412;59.450;18.124;2024-03-17T14:15:04;6.00;91.70
10722;DHT22;5412;59.450;18.124;2024-03-17T14:17:45;6.00;90.60
10722;DHT22;5412;59.450;18.124;2024-03-17T14:20:11;6.30;90.00
10722;DHT22;5412;59.450;18.124;2024-03-17T14:22:42;6.40;88.00
10722;DHT22;5412;59.450;18.124;2024-03-17T14:25:10;6.60;87.70
10722;DHT22;5412;59.450;18.124;2024-03-17T14:27:38;7.00;85.50
10722;DHT22;5412;59.450;18.124;2024-03-17T14:30:04;6.50;82.60
10722;DHT22;5412;59.450;18.124;2024-03-17T14:32:31;6.20;82.60
10722;DHT22;5412;59.450;18.124;2024-03-17T14:34:57;5.70;83.70
10722;DHT22;5412;59.450;18.124;2024-03-17T14:37:23;6.20;83.10
10722;DHT22;5412;59.450;18.124;2024-03-17T14:39:51;5.90;83.50
10722;DHT22;5412;59.450;18.124;2024-03-17T14:42:17;6.00;83.20
10722;DHT22;5412;59.450;18.124;2024-03-17T14:44:42;5.50;82.00
10722;DHT22;5412;59.450;18.124;2024-03-17T14:47:08;4.80;83.30
10722;DHT22;5412;59.450;18.124;2024-03-17T14:49:36;4.00;86.20
10722;DHT22;5412;59.450;18.124;2024-03-17T14:52:05;3.70;87.80
10722;DHT22;5412;59.450;18.124;2024-03-17T14:54:31;5.60;85.90
10722;DHT22;5412;59.450;18.124;2024-03-17T14:56:57;5.70;81.50
10722;DHT22;5412;59.450;18.124;2024-03-17T14:59:23;6.40;80.40
10722;DHT22;5412;59.450;18.124;2024-03-17T15:01:48;6.30;78.70
10722;DHT22;5412;59.450;18.124;2024-03-17T15:04:15;7.00;76.90
10722;DHT22;5412;59.450;18.124;2024-03-17T15:06:41;7.10;76.90
10722;DHT22;5412;59.450;18.124;2024-03-17T15:09:11;7.60;75.20
10722;DHT22;5412;59.450;18.124;2024-03-17T15:11:45;7.80;72.90
10722;DHT22;5412;59.450;18.124;2024-03-17T15:14:12;7.90;70.60
10722;DHT22;5412;59.450;18.124;2024-03-17T15:16:38;7.20;69.80
10722;DHT22;5412;59.450;18.124;2024-03-17T15:19:07;6.60;68.80
10722;DHT22;5412;59.450;18.124;2024-03-17T15:21:33;6.20;70.30
10722;DHT22;5412;59.450;18.124;2024-03-17T15:24:00;6.10;70.40
10722;DHT22;5412;59.450;18.124;2024-03-17T15:26:28;5.60;71.80
10722;DHT22;5412;59.450;18.124;2024-03-17T15:28:54;4.90;72.80
10722;DHT22;5412;59.450;18.124;2024-03-17T15:31:21;3.80;76.60
10722;DHT22;5412;59.450;18.124;2024-03-17T15:33:50;2.80;79.50
10722;DHT22;5412;59.450;18.124;2024-03-17T15:36:16;2.30;81.00
10722;DHT22;5412;59.450;18.124;2024-03-17T15:38:42;1.90;83.50
10722;DHT22;5412;59.450;18.124;2024-03-17T15:41:10;1.50;85.10
10722;DHT22;5412;59.450;18.124;2024-03-17T15:43:39;1.30;86.50
10722;DHT22;5412;59.450;18.124;2024-03-17T15:46:08;1.40;86.80
10722;DHT22;5412;59.450;18.124;2024-03-17T15:48:34;1.40;87.10
10722;DHT22;5412;59.450;18.124;2024-03-17T15:51:00;1.40;87.20
10722;DHT22;5412;59.450;18.124;2024-03-17T15:53:27;1.10;88.60
10722;DHT22;5412;59.450;18.124;2024-03-17T15:55:57;1.10;89.70
10722;DHT22;5412;59.450;18.124;2024-03-17T15:58:23;1.30;89.90
10722;DHT22;5412;59.450;18.124;2024-03-17T16:00:49;1.20;90.30
10722;DHT22;5412;59.450;18.124;2024-03-17T16:03:15;1.10;90.50
10722;DHT22;5412;59.450;18.124;2024-03-17T16:05:47;1.00;90.60
10722;DHT22;5412;59.450;18.124;2024-03-17T16:08:17;1.00;90.80
10722;DHT22;5412;59.450;18.124;2024-03-17T16:10:50;1.00;91.10
10722;DHT22;5412;59.450;18.124;2024-03-17T16:13:17;1.40;91.00
10722;DHT22;5412;59.450;18.124;2024-03-17T16:15:49;1.30;90.60
10722;DHT22;5412;59.450;18.124;2024-03-17T16:18:15;1.20;90.60
10722;DHT22;5412;59.450;18.124;2024-03-17T16:21:00;1.00;90.90
10722;DHT22;5412;59.450;18.124;2024-03-17T16:23:30;0.60;91.50
10722;DHT22;5412;59.450;18.124;2024-03-17T16:25:57;0.40;91.70